Pingryville, Massachusetts
Current Conditions -  °F | °C
As of 8:56 PM on Saturday 20 Dec 2014 (Local Time) from KBED Reporting Station
Overcast Overcast  
Wind Chill: 24°   Ceiling: 4400
Heat Index: 31°   Visibility: 10mi
Dew Point: 25°   Wind: 7mph
Humidity: 79%   Direction: 350°N
Pressure: 30.29"   Gusts: NA
Location:  42.5349°N, 71.4895°W
Report Text: KBED 210156Z 35006KT 10SM OVC044 M01/M04 A3029 RMK AO2 SLP274 T10061039
Loading
Personal Weather Stations






























Interactive Weather Map New forecast layout! Learn more

10-Day Weather Forecast

Advertisements
Track Severe Weather on mobile